createdAt,value
2022-08-08T00:01:15.729Z,13.71
2022-08-08T00:03:54.654Z,13.49
2022-08-08T00:06:34.991Z,13.35
2022-08-08T00:09:04.285Z,13.10
2022-08-08T00:12:09.879Z,13.08
2022-08-08T00:15:03.245Z,12.93
2022-08-08T00:18:02.338Z,13.20
2022-08-08T00:20:49.886Z,13.01
2022-08-08T00:23:28.307Z,12.95
2022-08-08T00:26:08.528Z,12.80
2022-08-08T00:28:42.230Z,12.74
2022-08-08T00:32:28.742Z,12.47
2022-08-08T00:34:47.456Z,12.39
2022-08-08T00:37:48.100Z,12.28
2022-08-08T00:41:08.978Z,12.09
2022-08-08T00:43:40.875Z,12.15
2022-08-08T00:46:19.877Z,11.96
2022-08-08T00:49:22.149Z,12.02
2022-08-08T00:52:19.912Z,12.10
2022-08-08T00:55:02.116Z,12.29
2022-08-08T00:57:40.514Z,12.46
2022-08-08T01:00:07.526Z,12.75
2022-08-08T01:03:57.271Z,12.77
2022-08-08T01:06:02.485Z,12.77
2022-08-08T01:08:50.369Z,13.07
2022-08-08T01:11:37.706Z,13.07
2022-08-08T01:14:04.162Z,12.88
2022-08-08T01:16:33.528Z,13.05
2022-08-08T01:19:12.440Z,12.97
2022-08-08T01:22:12.030Z,12.98
2022-08-08T01:24:58.375Z,12.97
2022-08-08T01:27:44.335Z,13.09
2022-08-08T01:30:24.897Z,13.11
2022-08-08T01:33:27.894Z,13.12
2022-08-08T01:36:18.769Z,13.12
2022-08-08T01:39:03.511Z,13.21
2022-08-08T01:41:34.229Z,13.22
2022-08-08T01:44:07.193Z,13.24
2022-08-08T01:46:52.360Z,13.21
2022-08-08T01:49:37.562Z,13.05
2022-08-08T01:52:49.738Z,12.87
2022-08-08T01:55:16.937Z,12.49
2022-08-08T01:58:13.039Z,12.37
2022-08-08T02:00:57.408Z,12.60
2022-08-08T02:03:55.179Z,12.66
2022-08-08T02:06:32.358Z,12.60
2022-08-08T02:10:01.727Z,12.67
2022-08-08T02:12:13.259Z,12.75
2022-08-08T02:14:55.155Z,12.81
2022-08-08T02:17:26.797Z,12.65
2022-08-08T02:20:14.748Z,12.85
2022-08-08T02:22:52.868Z,12.61
2022-08-08T02:25:32.764Z,12.75
2022-08-08T02:28:13.089Z,12.67
2022-08-08T02:31:01.938Z,12.67
2022-08-08T02:33:41.421Z,12.65
2022-08-08T02:36:37.806Z,12.76
2022-08-08T02:39:40.822Z,12.67
2022-08-08T02:42:04.180Z,12.41
2022-08-08T02:44:56.875Z,12.71
2022-08-08T02:47:27.178Z,12.68
2022-08-08T02:50:04.555Z,12.63
2022-08-08T02:52:38.784Z,12.41
2022-08-08T02:55:10.361Z,12.81
2022-08-08T02:57:54.948Z,12.78
2022-08-08T03:00:51.309Z,12.63
2022-08-08T03:03:46.320Z,12.49
2022-08-08T03:06:34.802Z,12.63
2022-08-08T03:09:28.791Z,12.29
2022-08-08T03:12:36.876Z,12.18
2022-08-08T03:16:02.365Z,11.69
2022-08-08T03:18:13.703Z,11.98
2022-08-08T03:20:51.944Z,11.73
2022-08-08T03:23:19.139Z,11.80
2022-08-08T03:25:46.563Z,11.74
2022-08-08T03:28:18.984Z,11.80
2022-08-08T03:30:49.148Z,11.75
2022-08-08T03:33:55.647Z,11.86
2022-08-08T03:36:19.618Z,11.78
2022-08-08T03:38:54.117Z,11.78
2022-08-08T03:42:12.563Z,11.68
2022-08-08T03:44:18.914Z,11.46
2022-08-08T03:46:51.854Z,11.64
2022-08-08T03:49:58.814Z,11.50
2022-08-08T03:52:06.105Z,11.61
2022-08-08T03:55:02.145Z,11.51
2022-08-08T03:58:30.074Z,11.77
2022-08-08T04:00:18.286Z,11.62
2022-08-08T04:02:54.750Z,11.85
2022-08-08T04:05:27.346Z,11.89
2022-08-08T04:07:55.273Z,11.87
2022-08-08T04:10:21.728Z,12.06
2022-08-08T04:12:49.838Z,12.05
2022-08-08T04:15:16.376Z,12.07
2022-08-08T04:17:46.246Z,12.13
2022-08-08T04:20:28.367Z,12.04
2022-08-08T04:22:56.953Z,12.20
2022-08-08T04:25:30.105Z,12.44
2022-08-08T04:28:10.600Z,12.37
2022-08-08T04:30:46.836Z,12.37
2022-08-08T04:33:15.822Z,12.26
2022-08-08T04:35:50.900Z,12.47
2022-08-08T04:38:21.716Z,12.52
2022-08-08T04:40:53.289Z,12.49
2022-08-08T04:43:20.423Z,12.35
2022-08-08T04:45:49.459Z,12.16
2022-08-08T04:48:16.015Z,12.16
2022-08-08T04:50:44.692Z,12.26
2022-08-08T04:53:14.018Z,12.37
2022-08-08T04:55:59.580Z,12.39
2022-08-08T04:58:26.077Z,12.90
2022-08-08T05:00:52.500Z,13.26
2022-08-08T05:04:09.809Z,13.31
2022-08-08T05:06:13.536Z,13.17
2022-08-08T05:08:51.526Z,13.04
2022-08-08T05:11:24.140Z,13.37
2022-08-08T05:13:57.596Z,13.45
2022-08-08T05:16:55.393Z,13.36
2022-08-08T05:20:09.036Z,13.75
2022-08-08T05:22:01.000Z,13.97
2022-08-08T05:24:27.526Z,13.34
2022-08-08T05:26:53.898Z,13.93
2022-08-08T05:29:20.786Z,14.23
2022-08-08T05:32:04.285Z,14.32
2022-08-08T05:34:40.774Z,14.49
2022-08-08T05:37:16.053Z,14.65
2022-08-08T05:39:46.799Z,14.56
2022-08-08T05:42:14.598Z,14.52
2022-08-08T05:44:45.323Z,14.74
2022-08-08T05:47:14.350Z,14.78
2022-08-08T05:49:56.000Z,14.97
2022-08-08T05:52:35.551Z,14.92
2022-08-08T05:55:09.936Z,15.20
2022-08-08T05:58:04.012Z,15.24
2022-08-08T06:00:27.960Z,15.44
2022-08-08T06:03:17.260Z,15.36
2022-08-08T06:05:52.091Z,15.46
2022-08-08T06:08:35.987Z,15.60
2022-08-08T06:11:04.904Z,15.68
2022-08-08T06:13:36.259Z,15.59
2022-08-08T06:16:13.741Z,15.73
2022-08-08T06:18:40.751Z,15.77
2022-08-08T06:21:11.799Z,15.90
2022-08-08T06:24:04.675Z,16.01
2022-08-08T06:26:44.504Z,16.02
2022-08-08T06:29:48.885Z,16.10
2022-08-08T06:32:15.282Z,16.16
2022-08-08T06:34:56.324Z,16.23
2022-08-08T06:37:37.425Z,16.38
2022-08-08T06:40:15.924Z,16.45
2022-08-08T06:42:56.474Z,16.53
2022-08-08T06:45:23.314Z,16.61
2022-08-08T06:47:51.830Z,16.71
2022-08-08T06:50:31.817Z,16.80
2022-08-08T06:53:00.698Z,16.91
2022-08-08T06:55:37.664Z,16.98
2022-08-08T06:58:07.999Z,17.06
2022-08-08T07:00:36.136Z,17.16
2022-08-08T07:03:09.013Z,17.22
2022-08-08T07:06:02.042Z,17.31
2022-08-08T07:08:37.734Z,17.38
2022-08-08T07:11:05.119Z,17.50
2022-08-08T07:13:38.702Z,17.58
2022-08-08T07:16:31.811Z,17.70
2022-08-08T07:19:21.843Z,17.78
2022-08-08T07:21:59.187Z,17.89
2022-08-08T07:24:38.082Z,17.97
2022-08-08T07:27:09.348Z,18.11
2022-08-08T07:30:02.293Z,18.23
2022-08-08T07:32:25.578Z,18.37
2022-08-08T07:35:00.971Z,18.42
2022-08-08T07:37:28.525Z,18.54
2022-08-08T07:40:28.765Z,18.67
2022-08-08T07:42:56.483Z,18.78
2022-08-08T07:45:23.422Z,18.90
2022-08-08T07:47:54.735Z,19.05
2022-08-08T07:50:21.929Z,19.17
2022-08-08T07:52:57.578Z,19.35
2022-08-08T07:55:28.591Z,19.47
2022-08-08T07:58:16.730Z,19.58
2022-08-08T08:00:48.500Z,19.69
2022-08-08T08:03:23.746Z,19.78
2022-08-08T08:05:54.119Z,19.89
2022-08-08T08:08:23.070Z,19.97
2022-08-08T08:10:50.391Z,20.06
2022-08-08T08:13:42.785Z,20.09
2022-08-08T08:16:23.570Z,20.28
2022-08-08T08:19:03.836Z,20.37
2022-08-08T08:21:52.304Z,20.40
2022-08-08T08:24:21.642Z,20.51
2022-08-08T08:26:57.419Z,20.63
2022-08-08T08:29:24.077Z,20.71
2022-08-08T08:31:58.086Z,20.53
2022-08-08T08:34:32.291Z,20.73
2022-08-08T08:37:00.462Z,20.88
2022-08-08T08:39:59.851Z,20.93
2022-08-08T08:42:29.294Z,20.89
2022-08-08T08:45:21.794Z,20.93
2022-08-08T08:47:54.034Z,20.95
2022-08-08T08:50:32.818Z,21.10
2022-08-08T08:53:04.951Z,21.17
2022-08-08T08:55:49.734Z,21.23
2022-08-08T08:58:31.368Z,21.30
2022-08-08T09:01:09.142Z,21.33
2022-08-08T09:03:47.657Z,21.13
2022-08-08T09:06:31.890Z,21.35
2022-08-08T09:09:40.310Z,21.34
2022-08-08T09:12:16.271Z,21.27
2022-08-08T09:14:45.005Z,21.26
2022-08-08T09:17:18.357Z,21.51
2022-08-08T09:22:00.704Z,21.58
2022-08-08T09:22:46.344Z,21.57
2022-08-08T09:25:15.106Z,21.49
2022-08-08T09:27:57.492Z,21.43
2022-08-08T09:30:25.910Z,21.34
2022-08-08T09:33:12.479Z,21.24
2022-08-08T09:35:49.209Z,21.42
2022-08-08T09:38:32.102Z,21.48
2022-08-08T09:41:03.169Z,21.55
2022-08-08T09:44:04.479Z,21.63
2022-08-08T09:46:25.874Z,21.71
2022-08-08T09:48:57.687Z,21.70
2022-08-08T09:52:06.033Z,21.76
2022-08-08T09:54:43.879Z,21.79
2022-08-08T09:57:16.553Z,21.84
2022-08-08T10:02:47.260Z,21.95
2022-08-08T10:05:25.614Z,22.05
2022-08-08T10:07:52.295Z,22.04
2022-08-08T10:10:37.745Z,22.11
2022-08-08T10:13:19.226Z,22.10
2022-08-08T10:16:01.046Z,22.07
2022-08-08T10:18:37.334Z,22.22
2022-08-08T10:21:22.480Z,22.28
2022-08-08T10:23:58.525Z,22.36
2022-08-08T10:26:30.579Z,22.43
2022-08-08T10:29:21.150Z,22.37
2022-08-08T10:32:15.009Z,22.42
2022-08-08T10:34:49.330Z,22.48
2022-08-08T10:37:30.689Z,22.51
2022-08-08T10:39:57.855Z,22.52
2022-08-08T10:42:35.728Z,22.56
2022-08-08T10:45:09.171Z,22.55
2022-08-08T10:47:43.852Z,22.58
2022-08-08T10:50:15.692Z,22.59
2022-08-08T10:52:42.484Z,22.68
2022-08-08T10:55:15.397Z,22.66
2022-08-08T10:58:08.469Z,22.65
2022-08-08T11:00:48.624Z,22.66
2022-08-08T11:03:37.224Z,22.61
2022-08-08T11:06:12.723Z,22.70
2022-08-08T11:08:53.206Z,22.67
2022-08-08T11:12:00.201Z,22.56
2022-08-08T11:14:07.801Z,22.71
2022-08-08T11:16:46.704Z,22.74
2022-08-08T11:19:15.574Z,22.69
2022-08-08T11:21:55.748Z,22.69
2022-08-08T11:24:25.116Z,22.72
2022-08-08T11:26:56.556Z,22.66
2022-08-08T11:29:41.344Z,22.72
2022-08-08T11:32:13.709Z,22.80
2022-08-08T11:34:58.962Z,22.88
2022-08-08T11:38:36.329Z,22.87
2022-08-08T11:40:15.749Z,22.84
2022-08-08T11:42:50.868Z,22.88
2022-08-08T11:45:18.199Z,22.95
2022-08-08T11:48:02.473Z,22.95
2022-08-08T11:50:32.310Z,22.86
2022-08-08T11:53:00.774Z,22.83
2022-08-08T11:55:35.284Z,22.79
2022-08-08T11:58:08.412Z,22.78
2022-08-08T12:00:59.906Z,22.65
2022-08-08T12:03:30.577Z,22.69
2022-08-08T12:05:57.477Z,22.62
2022-08-08T12:08:30.872Z,22.61
2022-08-08T12:10:59.867Z,22.49
2022-08-08T12:13:38.057Z,22.54
2022-08-08T12:16:16.237Z,22.51
2022-08-08T12:18:49.448Z,22.53
2022-08-08T12:21:59.876Z,22.51
2022-08-08T12:24:14.236Z,22.57
2022-08-08T12:26:50.066Z,22.55
2022-08-08T12:29:21.481Z,22.60
2022-08-08T12:31:53.687Z,22.63
2022-08-08T12:34:36.231Z,22.66
2022-08-08T12:37:05.345Z,22.74
2022-08-08T12:40:00.077Z,22.77
2022-08-08T12:42:21.865Z,22.82
2022-08-08T12:44:50.410Z,22.82
2022-08-08T12:47:58.020Z,22.86
2022-08-08T12:50:13.492Z,22.84
2022-08-08T12:52:42.335Z,22.79
2022-08-08T12:55:13.648Z,22.78
2022-08-08T12:57:49.951Z,22.76
2022-08-08T13:00:33.818Z,22.75
2022-08-08T13:03:05.426Z,22.78
2022-08-08T13:06:05.402Z,22.50
2022-08-08T13:08:21.769Z,22.65
2022-08-08T13:10:56.675Z,22.68
2022-08-08T13:13:37.021Z,22.77
2022-08-08T13:16:20.573Z,22.78
2022-08-08T13:18:58.251Z,22.78
2022-08-08T13:21:53.375Z,22.82
2022-08-08T13:24:18.303Z,22.83
2022-08-08T13:26:45.492Z,22.79
2022-08-08T13:29:13.604Z,22.79
2022-08-08T13:31:51.669Z,22.81
2022-08-08T13:34:29.345Z,22.78
2022-08-08T13:36:59.826Z,22.73
2022-08-08T13:39:26.317Z,22.81
2022-08-08T13:42:00.146Z,22.82
2022-08-08T13:44:29.022Z,22.80
2022-08-08T13:46:59.009Z,22.81
2022-08-08T13:50:36.587Z,22.75
2022-08-08T13:52:12.175Z,22.65
2022-08-08T13:54:50.403Z,22.67
2022-08-08T13:57:19.037Z,22.75
2022-08-08T14:00:09.821Z,22.65
2022-08-08T14:02:36.812Z,22.73
2022-08-08T14:05:20.178Z,22.89
2022-08-08T14:07:49.875Z,22.91
2022-08-08T14:10:33.627Z,22.90
2022-08-08T14:13:09.959Z,22.94
2022-08-08T14:16:01.428Z,22.96
2022-08-08T14:18:35.576Z,22.99
2022-08-08T14:21:15.305Z,22.95
2022-08-08T14:24:04.214Z,23.00
2022-08-08T14:26:38.172Z,22.80
2022-08-08T14:29:06.156Z,22.88
2022-08-08T14:32:09.344Z,22.83
2022-08-08T14:34:33.259Z,22.87
2022-08-08T14:37:05.499Z,22.65
2022-08-08T14:39:48.399Z,22.57
2022-08-08T14:42:16.743Z,22.66
2022-08-08T14:44:52.888Z,22.65
2022-08-08T14:47:21.720Z,22.95
2022-08-08T14:50:06.263Z,22.78
2022-08-08T14:52:39.152Z,22.86
2022-08-08T14:55:10.452Z,22.89
2022-08-08T14:58:05.998Z,22.93
2022-08-08T15:00:25.167Z,22.89
2022-08-08T15:02:58.924Z,22.75
2022-08-08T15:05:43.090Z,22.88
2022-08-08T15:08:22.436Z,22.61
2022-08-08T15:11:00.463Z,22.70
2022-08-08T15:13:26.858Z,22.85
2022-08-08T15:16:08.499Z,22.78
2022-08-08T15:18:40.051Z,23.05
2022-08-08T15:21:10.551Z,23.00
2022-08-08T15:23:37.533Z,22.81
2022-08-08T15:26:04.170Z,22.85
2022-08-08T15:28:33.951Z,23.00
2022-08-08T15:31:01.316Z,22.94
2022-08-08T15:33:35.358Z,23.00
2022-08-08T15:36:05.402Z,22.93
2022-08-08T15:38:32.425Z,22.89
2022-08-08T15:40:59.040Z,22.89
2022-08-08T15:43:36.423Z,22.77
2022-08-08T15:46:05.143Z,22.63
2022-08-08T15:48:31.550Z,22.77
2022-08-08T15:51:01.650Z,22.47
2022-08-08T15:53:40.231Z,22.64
2022-08-08T15:56:10.838Z,22.85
2022-08-08T15:58:39.367Z,22.72
2022-08-08T16:01:14.875Z,22.78
2022-08-08T16:03:42.175Z,22.80
2022-08-08T16:06:14.470Z,22.91
2022-08-08T16:08:40.996Z,22.45
2022-08-08T16:13:11.973Z,22.33
2022-08-08T16:14:16.014Z,22.68
2022-08-08T16:16:58.905Z,23.03
2022-08-08T16:19:26.234Z,22.86
2022-08-08T16:21:54.067Z,22.85
2022-08-08T16:24:22.957Z,22.72
2022-08-08T16:26:50.819Z,22.82
2022-08-08T16:29:37.057Z,22.81
2022-08-08T16:32:04.284Z,22.79
2022-08-08T16:34:37.705Z,22.97
2022-08-08T16:37:05.303Z,23.01
2022-08-08T16:40:02.212Z,22.73
2022-08-08T16:42:18.778Z,22.69
2022-08-08T16:44:53.967Z,22.53
2022-08-08T16:47:40.053Z,22.50
2022-08-08T16:50:13.193Z,22.57
2022-08-08T16:55:06.926Z,22.64
2022-08-08T16:55:53.239Z,22.52
2022-08-08T16:58:18.484Z,22.28
2022-08-08T17:00:48.756Z,22.33
2022-08-08T17:03:24.430Z,22.37
2022-08-08T17:05:53.480Z,22.21
2022-08-08T17:08:20.294Z,22.28
2022-08-08T17:10:58.142Z,22.28
2022-08-08T17:13:40.930Z,22.30
2022-08-08T17:16:17.114Z,22.10
2022-08-08T17:18:45.619Z,22.15
2022-08-08T17:21:12.414Z,22.26
2022-08-08T17:24:01.918Z,22.19
2022-08-08T17:26:28.895Z,22.01
2022-08-08T17:28:55.843Z,21.93
2022-08-08T17:31:43.662Z,22.10
2022-08-08T17:34:53.981Z,22.00
2022-08-08T17:37:03.076Z,21.95
2022-08-08T17:40:03.820Z,22.07
2022-08-08T17:42:17.951Z,22.20
2022-08-08T17:44:45.019Z,22.11
2022-08-08T17:47:16.295Z,22.09
2022-08-08T17:49:51.801Z,21.91
2022-08-08T17:52:19.177Z,22.00
2022-08-08T17:54:46.369Z,21.91
2022-08-08T17:57:14.244Z,21.87
2022-08-08T17:59:45.927Z,21.61
2022-08-08T18:02:16.339Z,21.63
2022-08-08T18:04:50.658Z,21.50
2022-08-08T18:08:03.621Z,21.58
2022-08-08T18:10:04.507Z,21.80
2022-08-08T18:12:30.875Z,21.39
2022-08-08T18:14:57.535Z,21.46
2022-08-08T18:17:28.568Z,21.36
2022-08-08T18:20:44.409Z,21.39
2022-08-08T18:22:50.663Z,21.39
2022-08-08T18:25:17.628Z,21.47
2022-08-08T18:27:45.634Z,21.41
2022-08-08T18:30:13.166Z,21.26
2022-08-08T18:32:41.964Z,21.35
2022-08-08T18:35:15.503Z,21.68
2022-08-08T18:37:47.883Z,21.73
2022-08-08T18:40:15.226Z,21.70
2022-08-08T18:42:45.804Z,21.66
2022-08-08T18:46:52.281Z,21.66
2022-08-08T18:48:08.396Z,21.66
2022-08-08T18:50:39.767Z,21.50
2022-08-08T18:53:22.451Z,21.41
2022-08-08T18:55:49.255Z,21.35
2022-08-08T18:58:15.635Z,21.29
2022-08-08T19:00:46.494Z,21.19
2022-08-08T19:03:16.542Z,21.06
2022-08-08T19:05:46.421Z,20.84
2022-08-08T19:08:25.387Z,20.80
2022-08-08T19:10:56.182Z,20.66
2022-08-08T19:13:24.488Z,20.70
2022-08-08T19:15:55.618Z,20.62
2022-08-08T19:18:33.134Z,20.46
2022-08-08T19:21:29.401Z,20.40
2022-08-08T19:23:56.012Z,20.36
2022-08-08T19:26:30.768Z,20.29
2022-08-08T19:28:58.275Z,20.18
2022-08-08T19:31:31.464Z,20.15
2022-08-08T19:34:29.774Z,20.13
2022-08-08T19:36:51.940Z,20.09
2022-08-08T19:39:19.594Z,20.09
2022-08-08T19:41:49.404Z,20.05
2022-08-08T19:44:42.360Z,20.04
2022-08-08T19:47:04.216Z,19.97
2022-08-08T19:49:37.685Z,20.03
2022-08-08T19:52:04.891Z,19.88
2022-08-08T19:54:31.966Z,19.93
2022-08-08T19:56:58.794Z,19.88
2022-08-08T19:59:31.041Z,19.81
2022-08-08T20:02:04.561Z,19.72
2022-08-08T20:04:31.646Z,19.64
2022-08-08T20:07:05.033Z,19.60
2022-08-08T20:09:45.267Z,19.53
2022-08-08T20:12:32.535Z,19.49
2022-08-08T20:15:02.277Z,19.42
2022-08-08T20:17:41.964Z,19.44
2022-08-08T20:20:10.266Z,19.37
2022-08-08T20:22:40.237Z,19.32
2022-08-08T20:25:07.909Z,19.32
2022-08-08T20:27:49.266Z,19.32
2022-08-08T20:30:38.989Z,19.24
2022-08-08T20:33:04.401Z,19.19
2022-08-08T20:35:57.058Z,19.00
2022-08-08T20:38:32.402Z,19.00
2022-08-08T20:41:00.435Z,18.90
2022-08-08T20:43:42.955Z,18.90
2022-08-08T20:46:09.675Z,18.92
2022-08-08T20:48:37.013Z,18.73
2022-08-08T20:51:05.378Z,18.79
2022-08-08T20:53:59.114Z,18.74
2022-08-08T20:56:20.121Z,18.68
2022-08-08T20:59:03.288Z,18.55
2022-08-08T21:01:32.600Z,18.48
2022-08-08T21:04:14.207Z,18.43
2022-08-08T21:06:52.548Z,18.37
2022-08-08T21:09:21.667Z,18.37
2022-08-08T21:11:50.360Z,18.34
2022-08-08T21:14:17.803Z,18.30
2022-08-08T21:16:56.992Z,18.30
2022-08-08T21:19:23.401Z,18.30
2022-08-08T21:21:56.757Z,18.35
2022-08-08T21:24:30.244Z,18.35
2022-08-08T21:26:57.955Z,18.31
2022-08-08T21:30:05.743Z,18.31
2022-08-08T21:32:19.123Z,18.35
2022-08-08T21:34:51.598Z,18.36
2022-08-08T21:37:28.759Z,18.35
2022-08-08T21:40:10.226Z,18.41
2022-08-08T21:42:37.857Z,18.42
2022-08-08T21:45:44.060Z,18.40
2022-08-08T21:48:01.100Z,18.47
2022-08-08T21:50:29.649Z,18.45
2022-08-08T21:54:22.636Z,18.40
2022-08-08T21:56:26.728Z,18.43
2022-08-08T21:58:37.543Z,18.50
2022-08-08T22:01:04.675Z,18.49
2022-08-08T22:03:31.489Z,18.53
2022-08-08T22:06:00.623Z,18.48
2022-08-08T22:08:37.069Z,18.43
2022-08-08T22:11:51.279Z,18.44
2022-08-08T22:13:55.182Z,18.41
2022-08-08T22:16:22.316Z,18.35
2022-08-08T22:18:52.603Z,18.42
2022-08-08T22:21:21.773Z,18.35
2022-08-08T22:23:51.358Z,18.44
2022-08-08T22:26:29.902Z,18.40
2022-08-08T22:29:14.385Z,18.40
2022-08-08T22:31:58.930Z,18.40
2022-08-08T22:34:30.550Z,18.21
2022-08-08T22:36:56.909Z,18.23
2022-08-08T22:39:23.289Z,18.17
2022-08-08T22:42:10.036Z,18.19
2022-08-08T22:44:36.972Z,18.19
2022-08-08T22:47:17.714Z,18.18
2022-08-08T22:49:44.875Z,18.16
2022-08-08T22:52:25.935Z,18.12
2022-08-08T22:54:55.969Z,18.09
2022-08-08T22:57:43.595Z,18.03
2022-08-08T23:00:13.347Z,18.02
2022-08-08T23:02:40.043Z,17.96
2022-08-08T23:05:13.721Z,17.98
2022-08-08T23:07:51.017Z,17.90
2022-08-08T23:10:25.567Z,17.79
2022-08-08T23:12:54.538Z,17.82
2022-08-08T23:16:39.329Z,17.81
2022-08-08T23:18:08.450Z,17.71
2022-08-08T23:20:39.002Z,17.67
2022-08-08T23:23:05.427Z,17.64
2022-08-08T23:25:45.415Z,17.60
2022-08-08T23:28:15.486Z,17.48
2022-08-08T23:30:44.275Z,17.40
2022-08-08T23:33:19.267Z,17.37
2022-08-08T23:36:06.735Z,17.36
2022-08-08T23:38:34.496Z,17.30
2022-08-08T23:41:00.887Z,17.23
2022-08-08T23:43:31.652Z,17.16
2022-08-08T23:49:02.527Z,17.05
2022-08-08T23:49:15.518Z,16.95
2022-08-08T23:52:04.029Z,16.92
2022-08-08T23:54:43.759Z,16.97
2022-08-08T23:57:26.582Z,17.00
